Andrew J. Barberi — WYR3370 — position and weather

sailwx.info

Track history (hours):
 
Tides and Currents Weather Stations Pressure Air Temp Water Temp Dewpoint Dewpoint Depression Visibility Wind Speed Wind Dir Waves Ship Positions

Andrew J. Barberi

Owner: CITY OF NEW YORK, Brooklyn, NY. More information available from US FCC via Universal Licensing System and Coast Guard Vessel Documentation Center.

Last reported at 2017-Mar-23 12:20 UTC. Time now 2017-Mar-23 12:34 UTC.
Position N 40°39' W 074°04'.

Length 94 m; draft 4.3 m.

Type: Ship. MMSI: 367000150.

Date/timePositionNaut miles runAvg speedWind from/ knotsBaromVisibWave heightAir tempDewpointWater temp
2017-Mar-23 12:20N 40°39' W 074°04'0 0.1
2017-Mar-23 11:17N 40°39' W 074°04'4 5.8
2017-Mar-23 10:34N 40°42' W 074°01'4 4.3
2017-Mar-23 09:33N 40°39' W 074°04'0 0.0
2017-Mar-23 08:33N 40°39' W 074°04'0 0.0
2017-Mar-23 07:33N 40°39' W 074°04'0 0.0
2017-Mar-23 06:33N 40°39' W 074°04'0 0.0
2017-Mar-23 05:32N 40°39' W 074°04'0 0.0
2017-Mar-23 04:29N 40°39' W 074°04'0 0.0
2017-Mar-23 03:32N 40°39' W 074°04'0 0.0
2017-Mar-23 02:32N 40°39' W 074°04'0 0.1
2017-Mar-23 01:34N 40°39' W 074°04'4 4.3
2017-Mar-23 00:33N 40°42' W 074°01'4 4.3
2017-Mar-22 23:33N 40°39' W 074°04'0 0.3
2017-Mar-22 22:33N 40°39' W 074°04'0 0.1
2017-Mar-22 21:33N 40°39' W 074°04'4 3.9
2017-Mar-22 20:33N 40°42' W 074°01'0 0.0
2017-Mar-22 19:33N 40°42' W 074°01'4 4.3
2017-Mar-22 18:33N 40°39' W 074°04'0 0.4
2017-Mar-22 17:33N 40°39' W 074°04'0 0.2
2017-Mar-22 15:30N 40°39' W 074°04'0 0.0
2017-Mar-22 14:33N 40°39' W 074°04'0 0.0
2017-Mar-22 13:33N 40°39' W 074°04'3 2.9
2017-Mar-22 12:33N 40°41' W 074°02'1 0.5
2017-Mar-22 11:34N 40°41' W 074°02'1 0.9
2017-Mar-22 10:33N 40°42' W 074°01'4 4.3
2017-Mar-22 09:33N 40°39' W 074°04'0 0.0
2017-Mar-22 08:33N 40°39' W 074°04'0 0.0
2017-Mar-22 07:33N 40°39' W 074°04'0 0.0
2017-Mar-22 06:33N 40°39' W 074°04'0 0.0
2017-Mar-22 05:31N 40°39' W 074°04'0 0.0
2017-Mar-22 04:31N 40°39' W 074°04'0 0.0
2017-Mar-22 03:31N 40°39' W 074°04'0 0.0
2017-Mar-22 02:31N 40°39' W 074°04'0 0.0
2017-Mar-22 01:34N 40°39' W 074°04'4 4.3
2017-Mar-22 00:33N 40°42' W 074°01'4 4.3
2017-Mar-21 23:33N 40°39' W 074°04'0 0.2
2017-Mar-21 22:33N 40°39' W 074°04'0 0.1
2017-Mar-21 21:22N 40°39' W 074°04'4 5.3
2017-Mar-21 20:33N 40°42' W 074°01'0 0.0
2017-Mar-21 19:33N 40°42' W 074°01'4 4.3
2017-Mar-21 18:34N 40°39' W 074°04'0 0.3
2017-Mar-21 17:33N 40°39' W 074°04'4 4.0
2017-Mar-21 16:33N 40°42' W 074°01'0 0.1
2017-Mar-21 15:34N 40°42' W 074°01'4 4.1
2017-Mar-21 14:33N 40°39' W 074°04'0 0.0
2017-Mar-21 13:09N 40°39' W 074°04'3 5.2
2017-Mar-21 12:33N 40°41' W 074°02'0 0.5
2017-Mar-21 11:33N 40°42' W 074°02'1 0.7
2017-Mar-21 10:34N 40°42' W 074°01'4 4.3
2017-Mar-21 09:34N 40°39' W 074°04'0 0.0
2017-Mar-21 08:33N 40°39' W 074°04'0 0.0
2017-Mar-21 07:34N 40°39' W 074°04'0 0.0
2017-Mar-21 06:31N 40°39' W 074°04'0 0.0
2017-Mar-21 05:31N 40°39' W 074°04'0 0.0
2017-Mar-21 04:28N 40°39' W 074°04'0 0.0
2017-Mar-21 03:31N 40°39' W 074°04'0 0.0
2017-Mar-21 02:31N 40°39' W 074°04'0 0.0
2017-Mar-21 01:33N 40°39' W 074°04'4 4.3
2017-Mar-21 00:33N 40°42' W 074°01'4 4.3
2017-Mar-20 23:33N 40°39' W 074°04'0 0.0
2017-Mar-20 22:33N 40°39' W 074°04'0 0.0
2017-Mar-20 21:33N 40°39' W 074°04'0 0.0
2017-Mar-20 20:11N 40°39' W 074°04'4 6.8
2017-Mar-20 19:33N 40°42' W 074°01'4 4.3
2017-Mar-20 18:34N 40°39' W 074°04'0 0.0
2017-Mar-20 15:34N 40°39' W 074°04'0 0.2
2017-Mar-20 14:33N 40°39' W 074°04'2 2.4
2017-Mar-20 13:34N 40°41' W 074°02'2 1.6
2017-Mar-20 12:34N 40°39' W 074°03'1 1.0
2017-Mar-20 11:33N 40°39' W 074°04'0 0.0
2017-Mar-20 10:33N 40°39' W 074°04'0 0.0
2017-Mar-20 09:34N 40°39' W 074°04'0 0.0
2017-Mar-20 08:34N 40°39' W 074°04'0 0.0
2017-Mar-20 07:34N 40°39' W 074°04'0 0.0
2017-Mar-20 06:34N 40°39' W 074°04'0 0.0
2017-Mar-20 05:34N 40°39' W 074°04'0 0.0
2017-Mar-20 04:34N 40°39' W 074°04'0 0.0
2017-Mar-20 03:34N 40°39' W 074°04'0 0.0
2017-Mar-20 02:34N 40°39' W 074°04'0 0.0
2017-Mar-20 01:34N 40°39' W 074°04'0 0.0
2017-Mar-20 00:34N 40°39' W 074°04'0 0.0
2017-Mar-19 23:34N 40°39' W 074°04'0 0.0
2017-Mar-19 22:33N 40°39' W 074°04'0 0.1
2017-Mar-19 21:34N 40°39' W 074°04'4 4.2
2017-Mar-19 20:33N 40°42' W 074°01'4 4.3
2017-Mar-19 19:34N 40°39' W 074°04'0 0.2
2017-Mar-19 18:34N 40°39' W 074°04'4 4.1
2017-Mar-19 17:34N 40°42' W 074°01'4 4.3
2017-Mar-19 16:33N 40°39' W 074°04'0 0.2
2017-Mar-19 15:33N 40°39' W 074°04'0 0.2
2017-Mar-19 14:34N 40°39' W 074°04'0 0.0
2017-Mar-19 13:34N 40°39' W 074°04'0 0.0
2017-Mar-19 12:33N 40°39' W 074°04'0 0.0
2017-Mar-19 11:34N 40°39' W 074°04'0 0.0
2017-Mar-19 10:34N 40°39' W 074°04'0 0.0
2017-Mar-19 09:33N 40°39' W 074°04'0 0.0
2017-Mar-19 08:34N 40°39' W 074°04'0 0.0
2017-Mar-19 07:34N 40°39' W 074°04'0 0.0
2017-Mar-19 06:33N 40°39' W 074°04'0 0.0
2017-Mar-19 05:34N 40°39' W 074°04'0 0.0
2017-Mar-19 04:34N 40°39' W 074°04'0 0.0
2017-Mar-19 03:34N 40°39' W 074°04'0 0.0
2017-Mar-19 02:33N 40°39' W 074°04'0 0.0
2017-Mar-19 01:33N 40°39' W 074°04'0 0.0
2017-Mar-19 00:34N 40°39' W 074°04'0 0.1
2017-Mar-18 23:34N 40°39' W 074°04'0 0.0
2017-Mar-18 22:34N 40°39' W 074°04'0 0.1
2017-Mar-18 21:34N 40°39' W 074°04'4 4.3
2017-Mar-18 20:34N 40°42' W 074°01'4 4.3
2017-Mar-18 19:34N 40°39' W 074°04'0 0.2
2017-Mar-18 18:33N 40°39' W 074°04'4 4.1
2017-Mar-18 17:34N 40°42' W 074°01'4 4.3
2017-Mar-18 16:33N 40°39' W 074°04'0 0.3
2017-Mar-18 15:33N 40°39' W 074°04'0 0.4
2017-Mar-18 14:33N 40°39' W 074°04'0 0.0
2017-Mar-18 13:33N 40°39' W 074°04'0 0.0
2017-Mar-18 12:32N 40°39' W 074°04'0 0.0
2017-Mar-18 11:32N 40°39' W 074°04'0 0.0
2017-Mar-18 10:32N 40°39' W 074°04'0 0.0
2017-Mar-18 09:32N 40°39' W 074°04'0 0.0
2017-Mar-18 08:32N 40°39' W 074°04'0 0.0
2017-Mar-18 07:32N 40°39' W 074°04'0 0.0
2017-Mar-18 06:32N 40°39' W 074°04'0 0.0
2017-Mar-18 05:32N 40°39' W 074°04'0 0.0
2017-Mar-18 04:32N 40°39' W 074°04'0 0.0
2017-Mar-18 03:32N 40°39' W 074°04'0 0.0
2017-Mar-18 02:33N 40°39' W 074°04'0 0.1
2017-Mar-18 01:33N 40°39' W 074°04'4 4.3
2017-Mar-18 00:33N 40°42' W 074°01'4 4.3
2017-Mar-17 23:33N 40°39' W 074°04'0 0.1
2017-Mar-17 22:33N 40°39' W 074°04'0 0.2
2017-Mar-17 21:33N 40°39' W 074°04'4 4.0
2017-Mar-17 20:34N 40°42' W 074°01'0 0.0
2017-Mar-17 19:33N 40°42' W 074°01'4 4.3
2017-Mar-17 18:33N 40°39' W 074°04'0 0.1
2017-Mar-17 17:33N 40°39' W 074°04'0 0.1
2017-Mar-17 16:33N 40°39' W 074°04'0 0.0
2017-Mar-17 15:34N 40°39' W 074°04'0 0.1
2017-Mar-17 14:34N 40°39' W 074°04'0 0.2
2017-Mar-17 13:34N 40°39' W 074°04'3 3.2
2017-Mar-17 12:33N 40°41' W 074°02'0 0.1
2017-Mar-17 11:33N 40°41' W 074°01'1 0.8
2017-Mar-17 10:33N 40°42' W 074°01'4 4.3
2017-Mar-17 09:33N 40°39' W 074°04'0 0.0
2017-Mar-17 08:33N 40°39' W 074°04'0 0.0
2017-Mar-17 07:33N 40°39' W 074°04'0 0.0
2017-Mar-17 06:33N 40°39' W 074°04'0 0.0
2017-Mar-17 05:33N 40°39' W 074°04'0 0.0
2017-Mar-17 04:33N 40°39' W 074°04'0 0.0
2017-Mar-17 03:33N 40°39' W 074°04'0 0.0
2017-Mar-17 02:33N 40°39' W 074°04'0 0.0
2017-Mar-17 01:33N 40°39' W 074°04'4 4.3
2017-Mar-17 00:33N 40°42' W 074°01'4 4.3
2017-Mar-16 23:34N 40°39' W 074°04'0 0.3
2017-Mar-16 22:34N 40°39' W 074°04'0 0.1
2017-Mar-16 21:34N 40°39' W 074°04'3 3.1
2017-Mar-16 20:33N 40°41' W 074°02'1 0.9
2017-Mar-16 19:33N 40°42' W 074°01'4 4.3
2017-Mar-16 18:33N 40°39' W 074°04'0 0.1
2017-Mar-16 17:34N 40°39' W 074°04'0 0.1
2017-Mar-16 16:33N 40°39' W 074°04'0 0.1
2017-Mar-16 13:33N 40°39' W 074°04'3 2.6
2017-Mar-16 12:33N 40°41' W 074°02'0 0.4
2017-Mar-16 11:33N 40°41' W 074°02'1 1.2
2017-Mar-16 10:33N 40°42' W 074°01'4 4.3
2017-Mar-16 09:34N 40°39' W 074°04'0 0.0
2017-Mar-16 08:34N 40°39' W 074°04'0 0.0
2017-Mar-16 06:33N 40°39' W 074°04'0 0.0
2017-Mar-16 05:33N 40°39' W 074°04'0 0.0
2017-Mar-16 04:30N 40°39' W 074°04'0 0.0
2017-Mar-16 03:33N 40°39' W 074°04'0 0.0
2017-Mar-16 02:33N 40°39' W 074°04'0 0.0
2017-Mar-16 01:33N 40°39' W 074°04'4 4.3
2017-Mar-16 00:33N 40°42' W 074°01'4 4.3
2017-Mar-15 23:33N 40°39' W 074°04'0 0.3
2017-Mar-15 22:33N 40°39' W 074°04'0 0.1
2017-Mar-15 21:33N 40°39' W 074°04'4 3.9
2017-Mar-15 20:33N 40°42' W 074°01'0 0.0
2017-Mar-15 19:33N 40°42' W 074°01'4 4.2
2017-Mar-15 18:33N 40°39' W 074°04'0 0.2
2017-Mar-15 17:33N 40°39' W 074°04'0 0.2
2017-Mar-15 16:33N 40°39' W 074°04'0 0.0
2017-Mar-15 15:33N 40°39' W 074°04'0 0.0
2017-Mar-15 14:33N 40°39' W 074°04'0 0.1
2017-Mar-15 13:14N 40°39' W 074°04'3 3.8
2017-Mar-15 12:33N 40°41' W 074°02'1 1.0
2017-Mar-15 11:33N 40°42' W 074°02'1 0.8
2017-Mar-15 10:33N 40°42' W 074°01'4 4.3
2017-Mar-15 09:34N 40°39' W 074°04'0 0.0
2017-Mar-15 08:34N 40°39' W 074°04'0 0.0
2017-Mar-15 07:34N 40°39' W 074°04'0 0.0
2017-Mar-15 06:32N 40°39' W 074°04'0 0.0
2017-Mar-15 05:32N 40°39' W 074°04'0 0.0
2017-Mar-15 04:32N 40°39' W 074°04'0 0.0
2017-Mar-15 03:32N 40°39' W 074°04'4 4.3
2017-Mar-15 02:34N 40°42' W 074°01'0 0.0
2017-Mar-15 01:33N 40°42' W 074°01'0 0.0
2017-Mar-15 00:34N 40°42' W 074°01'0 0.0
2017-Mar-14 23:33N 40°42' W 074°01'0 0.1
2017-Mar-14 22:34N 40°42' W 074°01'0 0.2
2017-Mar-14 21:33N 40°42' W 074°01'0 0.1
2017-Mar-14 20:33N 40°42' W 074°01'0 0.0
2017-Mar-14 19:33N 40°42' W 074°01'0 0.0
2017-Mar-14 18:33N 40°42' W 074°01'0 0.0
2017-Mar-14 17:34N 40°42' W 074°01'0 0.1
2017-Mar-14 16:33N 40°42' W 074°01'0 0.1
2017-Mar-14 15:34N 40°42' W 074°01'0 0.1
2017-Mar-14 14:34N 40°42' W 074°01'0 0.1
2017-Mar-14 13:33N 40°42' W 074°01'0 0.1
2017-Mar-14 12:34N 40°42' W 074°01'0 0.2
2017-Mar-14 11:34N 40°42' W 074°01'0 0.0
2017-Mar-14 10:33N 40°42' W 074°01'0 0.0
2017-Mar-14 09:33N 40°42' W 074°01'0 0.0
2017-Mar-14 08:33N 40°42' W 074°01'4 4.3
2017-Mar-14 07:33N 40°39' W 074°04'4 4.2
2017-Mar-14 06:33N 40°42' W 074°01'0 0.0
2017-Mar-14 05:33N 40°42' W 074°01'0 0.0
2017-Mar-14 04:33N 40°42' W 074°01'4 4.3
2017-Mar-14 03:34N 40°39' W 074°04'0 0.0
2017-Mar-14 02:34N 40°39' W 074°04'0 0.0
2017-Mar-14 01:33N 40°39' W 074°04'4 4.2
2017-Mar-14 00:34N 40°42' W 074°01'4 4.2
2017-Mar-13 23:33N 40°39' W 074°04'0 0.0
2017-Mar-13 22:33N 40°39' W 074°04'0 0.2
2017-Mar-13 21:33N 40°39' W 074°04'4 4.1
2017-Mar-13 20:34N 40°42' W 074°01'0 0.0
2017-Mar-13 19:34N 40°42' W 074°01'4 1.4
2017-Mar-13 16:34N 40°39' W 074°04'0 0.0
2017-Mar-13 15:34N 40°39' W 074°04'0 0.0
2017-Mar-13 14:34N 40°39' W 074°04'0 0.1
2017-Mar-13 13:33N 40°39' W 074°04'3 3.4
2017-Mar-13 12:33N 40°41' W 074°02'  
Track history (hours):
 
Tides and Currents Weather Stations Pressure Air Temp Water Temp Dewpoint Dewpoint Depression Visibility Wind Speed Wind Dir Waves Ship Positions

Andrew J. Barberi

Owner: CITY OF NEW YORK, Brooklyn, NY. More information available from US FCC via Universal Licensing System and Coast Guard Vessel Documentation Center.

Last reported at 2017-Mar-23 12:20 UTC. Time now 2017-Mar-23 12:34 UTC.
Position N 40°39' W 074°04'.

Length 94 m; draft 4.3 m.

Type: Ship. MMSI: 367000150.

Date/timePositionNaut miles runAvg speedWind from/ knotsBaromVisibWave heightAir tempDewpointWater temp
2017-Mar-23 12:20N 40°39' W 074°04'0 0.1
2017-Mar-23 11:17N 40°39' W 074°04'4 5.8
2017-Mar-23 10:34N 40°42' W 074°01'4 4.3
2017-Mar-23 09:33N 40°39' W 074°04'0 0.0
2017-Mar-23 08:33N 40°39' W 074°04'0 0.0
2017-Mar-23 07:33N 40°39' W 074°04'0 0.0
2017-Mar-23 06:33N 40°39' W 074°04'0 0.0
2017-Mar-23 05:32N 40°39' W 074°04'0 0.0
2017-Mar-23 04:29N 40°39' W 074°04'0 0.0
2017-Mar-23 03:32N 40°39' W 074°04'0 0.0
2017-Mar-23 02:32N 40°39' W 074°04'0 0.1
2017-Mar-23 01:34N 40°39' W 074°04'4 4.3
2017-Mar-23 00:33N 40°42' W 074°01'4 4.3
2017-Mar-22 23:33N 40°39' W 074°04'0 0.3
2017-Mar-22 22:33N 40°39' W 074°04'0 0.1
2017-Mar-22 21:33N 40°39' W 074°04'4 3.9
2017-Mar-22 20:33N 40°42' W 074°01'0 0.0
2017-Mar-22 19:33N 40°42' W 074°01'4 4.3
2017-Mar-22 18:33N 40°39' W 074°04'0 0.4
2017-Mar-22 17:33N 40°39' W 074°04'0 0.2
2017-Mar-22 15:30N 40°39' W 074°04'0 0.0
2017-Mar-22 14:33N 40°39' W 074°04'0 0.0
2017-Mar-22 13:33N 40°39' W 074°04'3 2.9
2017-Mar-22 12:33N 40°41' W 074°02'1 0.5
2017-Mar-22 11:34N 40°41' W 074°02'1 0.9
2017-Mar-22 10:33N 40°42' W 074°01'4 4.3
2017-Mar-22 09:33N 40°39' W 074°04'0 0.0
2017-Mar-22 08:33N 40°39' W 074°04'0 0.0
2017-Mar-22 07:33N 40°39' W 074°04'0 0.0
2017-Mar-22 06:33N 40°39' W 074°04'0 0.0
2017-Mar-22 05:31N 40°39' W 074°04'0 0.0
2017-Mar-22 04:31N 40°39' W 074°04'0 0.0
2017-Mar-22 03:31N 40°39' W 074°04'0 0.0
2017-Mar-22 02:31N 40°39' W 074°04'0 0.0
2017-Mar-22 01:34N 40°39' W 074°04'4 4.3
2017-Mar-22 00:33N 40°42' W 074°01'4 4.3
2017-Mar-21 23:33N 40°39' W 074°04'0 0.2
2017-Mar-21 22:33N 40°39' W 074°04'0 0.1
2017-Mar-21 21:22N 40°39' W 074°04'4 5.3
2017-Mar-21 20:33N 40°42' W 074°01'0 0.0
2017-Mar-21 19:33N 40°42' W 074°01'4 4.3
2017-Mar-21 18:34N 40°39' W 074°04'0 0.3
2017-Mar-21 17:33N 40°39' W 074°04'4 4.0
2017-Mar-21 16:33N 40°42' W 074°01'0 0.1
2017-Mar-21 15:34N 40°42' W 074°01'4 4.1
2017-Mar-21 14:33N 40°39' W 074°04'0 0.0
2017-Mar-21 13:09N 40°39' W 074°04'3 5.2
2017-Mar-21 12:33N 40°41' W 074°02'0 0.5
2017-Mar-21 11:33N 40°42' W 074°02'1 0.7
2017-Mar-21 10:34N 40°42' W 074°01'4 4.3
2017-Mar-21 09:34N 40°39' W 074°04'0 0.0
2017-Mar-21 08:33N 40°39' W 074°04'0 0.0
2017-Mar-21 07:34N 40°39' W 074°04'0 0.0
2017-Mar-21 06:31N 40°39' W 074°04'0 0.0
2017-Mar-21 05:31N 40°39' W 074°04'0 0.0
2017-Mar-21 04:28N 40°39' W 074°04'0 0.0
2017-Mar-21 03:31N 40°39' W 074°04'0 0.0
2017-Mar-21 02:31N 40°39' W 074°04'0 0.0
2017-Mar-21 01:33N 40°39' W 074°04'4 4.3
2017-Mar-21 00:33N 40°42' W 074°01'4 4.3
2017-Mar-20 23:33N 40°39' W 074°04'0 0.0
2017-Mar-20 22:33N 40°39' W 074°04'0 0.0
2017-Mar-20 21:33N 40°39' W 074°04'0 0.0
2017-Mar-20 20:11N 40°39' W 074°04'4 6.8
2017-Mar-20 19:33N 40°42' W 074°01'4 4.3
2017-Mar-20 18:34N 40°39' W 074°04'0 0.0
2017-Mar-20 15:34N 40°39' W 074°04'0 0.2
2017-Mar-20 14:33N 40°39' W 074°04'2 2.4
2017-Mar-20 13:34N 40°41' W 074°02'2 1.6
2017-Mar-20 12:34N 40°39' W 074°03'1 1.0
2017-Mar-20 11:33N 40°39' W 074°04'0 0.0
2017-Mar-20 10:33N 40°39' W 074°04'0 0.0
2017-Mar-20 09:34N 40°39' W 074°04'0 0.0
2017-Mar-20 08:34N 40°39' W 074°04'0 0.0
2017-Mar-20 07:34N 40°39' W 074°04'0 0.0
2017-Mar-20 06:34N 40°39' W 074°04'0 0.0
2017-Mar-20 05:34N 40°39' W 074°04'0 0.0
2017-Mar-20 04:34N 40°39' W 074°04'0 0.0
2017-Mar-20 03:34N 40°39' W 074°04'0 0.0
2017-Mar-20 02:34N 40°39' W 074°04'0 0.0
2017-Mar-20 01:34N 40°39' W 074°04'0 0.0
2017-Mar-20 00:34N 40°39' W 074°04'0 0.0
2017-Mar-19 23:34N 40°39' W 074°04'0 0.0
2017-Mar-19 22:33N 40°39' W 074°04'0 0.1
2017-Mar-19 21:34N 40°39' W 074°04'4 4.2
2017-Mar-19 20:33N 40°42' W 074°01'4 4.3
2017-Mar-19 19:34N 40°39' W 074°04'0 0.2
2017-Mar-19 18:34N 40°39' W 074°04'4 4.1
2017-Mar-19 17:34N 40°42' W 074°01'4 4.3
2017-Mar-19 16:33N 40°39' W 074°04'0 0.2
2017-Mar-19 15:33N 40°39' W 074°04'0 0.2
2017-Mar-19 14:34N 40°39' W 074°04'0 0.0
2017-Mar-19 13:34N 40°39' W 074°04'0 0.0
2017-Mar-19 12:33N 40°39' W 074°04'0 0.0
2017-Mar-19 11:34N 40°39' W 074°04'0 0.0
2017-Mar-19 10:34N 40°39' W 074°04'0 0.0
2017-Mar-19 09:33N 40°39' W 074°04'0 0.0
2017-Mar-19 08:34N 40°39' W 074°04'0 0.0
2017-Mar-19 07:34N 40°39' W 074°04'0 0.0
2017-Mar-19 06:33N 40°39' W 074°04'0 0.0
2017-Mar-19 05:34N 40°39' W 074°04'0 0.0
2017-Mar-19 04:34N 40°39' W 074°04'0 0.0
2017-Mar-19 03:34N 40°39' W 074°04'0 0.0
2017-Mar-19 02:33N 40°39' W 074°04'0 0.0
2017-Mar-19 01:33N 40°39' W 074°04'0 0.0
2017-Mar-19 00:34N 40°39' W 074°04'0 0.1
2017-Mar-18 23:34N 40°39' W 074°04'0 0.0
2017-Mar-18 22:34N 40°39' W 074°04'0 0.1
2017-Mar-18 21:34N 40°39' W 074°04'4 4.3
2017-Mar-18 20:34N 40°42' W 074°01'4 4.3
2017-Mar-18 19:34N 40°39' W 074°04'0 0.2
2017-Mar-18 18:33N 40°39' W 074°04'4 4.1
2017-Mar-18 17:34N 40°42' W 074°01'4 4.3
2017-Mar-18 16:33N 40°39' W 074°04'0 0.3
2017-Mar-18 15:33N 40°39' W 074°04'0 0.4
2017-Mar-18 14:33N 40°39' W 074°04'0 0.0
2017-Mar-18 13:33N 40°39' W 074°04'0 0.0
2017-Mar-18 12:32N 40°39' W 074°04'0 0.0
2017-Mar-18 11:32N 40°39' W 074°04'0 0.0
2017-Mar-18 10:32N 40°39' W 074°04'0 0.0
2017-Mar-18 09:32N 40°39' W 074°04'0 0.0
2017-Mar-18 08:32N 40°39' W 074°04'0 0.0
2017-Mar-18 07:32N 40°39' W 074°04'0 0.0
2017-Mar-18 06:32N 40°39' W 074°04'0 0.0
2017-Mar-18 05:32N 40°39' W 074°04'0 0.0
2017-Mar-18 04:32N 40°39' W 074°04'0 0.0
2017-Mar-18 03:32N 40°39' W 074°04'0 0.0
2017-Mar-18 02:33N 40°39' W 074°04'0 0.1
2017-Mar-18 01:33N 40°39' W 074°04'4 4.3
2017-Mar-18 00:33N 40°42' W 074°01'4 4.3
2017-Mar-17 23:33N 40°39' W 074°04'0 0.1
2017-Mar-17 22:33N 40°39' W 074°04'0 0.2
2017-Mar-17 21:33N 40°39' W 074°04'4 4.0
2017-Mar-17 20:34N 40°42' W 074°01'0 0.0
2017-Mar-17 19:33N 40°42' W 074°01'4 4.3
2017-Mar-17 18:33N 40°39' W 074°04'0 0.1
2017-Mar-17 17:33N 40°39' W 074°04'0 0.1
2017-Mar-17 16:33N 40°39' W 074°04'0 0.0
2017-Mar-17 15:34N 40°39' W 074°04'0 0.1
2017-Mar-17 14:34N 40°39' W 074°04'0 0.2
2017-Mar-17 13:34N 40°39' W 074°04'3 3.2
2017-Mar-17 12:33N 40°41' W 074°02'0 0.1
2017-Mar-17 11:33N 40°41' W 074°01'1 0.8
2017-Mar-17 10:33N 40°42' W 074°01'4 4.3
2017-Mar-17 09:33N 40°39' W 074°04'0 0.0
2017-Mar-17 08:33N 40°39' W 074°04'0 0.0
2017-Mar-17 07:33N 40°39' W 074°04'0 0.0
2017-Mar-17 06:33N 40°39' W 074°04'0 0.0
2017-Mar-17 05:33N 40°39' W 074°04'0 0.0
2017-Mar-17 04:33N 40°39' W 074°04'0 0.0
2017-Mar-17 03:33N 40°39' W 074°04'0 0.0
2017-Mar-17 02:33N 40°39' W 074°04'0 0.0
2017-Mar-17 01:33N 40°39' W 074°04'4 4.3
2017-Mar-17 00:33N 40°42' W 074°01'4 4.3
2017-Mar-16 23:34N 40°39' W 074°04'0 0.3
2017-Mar-16 22:34N 40°39' W 074°04'0 0.1
2017-Mar-16 21:34N 40°39' W 074°04'3 3.1
2017-Mar-16 20:33N 40°41' W 074°02'1 0.9
2017-Mar-16 19:33N 40°42' W 074°01'4 4.3
2017-Mar-16 18:33N 40°39' W 074°04'0 0.1
2017-Mar-16 17:34N 40°39' W 074°04'0 0.1
2017-Mar-16 16:33N 40°39' W 074°04'0 0.1
2017-Mar-16 13:33N 40°39' W 074°04'3 2.6
2017-Mar-16 12:33N 40°41' W 074°02'0 0.4
2017-Mar-16 11:33N 40°41' W 074°02'1 1.2
2017-Mar-16 10:33N 40°42' W 074°01'4 4.3
2017-Mar-16 09:34N 40°39' W 074°04'0 0.0
2017-Mar-16 08:34N 40°39' W 074°04'0 0.0
2017-Mar-16 06:33N 40°39' W 074°04'0 0.0
2017-Mar-16 05:33N 40°39' W 074°04'0 0.0
2017-Mar-16 04:30N 40°39' W 074°04'0 0.0
2017-Mar-16 03:33N 40°39' W 074°04'0 0.0
2017-Mar-16 02:33N 40°39' W 074°04'0 0.0
2017-Mar-16 01:33N 40°39' W 074°04'4 4.3
2017-Mar-16 00:33N 40°42' W 074°01'4 4.3
2017-Mar-15 23:33N 40°39' W 074°04'0 0.3
2017-Mar-15 22:33N 40°39' W 074°04'0 0.1
2017-Mar-15 21:33N 40°39' W 074°04'4 3.9
2017-Mar-15 20:33N 40°42' W 074°01'0 0.0
2017-Mar-15 19:33N 40°42' W 074°01'4 4.2
2017-Mar-15 18:33N 40°39' W 074°04'0 0.2
2017-Mar-15 17:33N 40°39' W 074°04'0 0.2
2017-Mar-15 16:33N 40°39' W 074°04'0 0.0
2017-Mar-15 15:33N 40°39' W 074°04'0 0.0
2017-Mar-15 14:33N 40°39' W 074°04'0 0.1
2017-Mar-15 13:14N 40°39' W 074°04'3 3.8
2017-Mar-15 12:33N 40°41' W 074°02'1 1.0
2017-Mar-15 11:33N 40°42' W 074°02'1 0.8
2017-Mar-15 10:33N 40°42' W 074°01'4 4.3
2017-Mar-15 09:34N 40°39' W 074°04'0 0.0
2017-Mar-15 08:34N 40°39' W 074°04'0 0.0
2017-Mar-15 07:34N 40°39' W 074°04'0 0.0
2017-Mar-15 06:32N 40°39' W 074°04'0 0.0
2017-Mar-15 05:32N 40°39' W 074°04'0 0.0
2017-Mar-15 04:32N 40°39' W 074°04'0 0.0
2017-Mar-15 03:32N 40°39' W 074°04'4 4.3
2017-Mar-15 02:34N 40°42' W 074°01'0 0.0
2017-Mar-15 01:33N 40°42' W 074°01'0 0.0
2017-Mar-15 00:34N 40°42' W 074°01'0 0.0
2017-Mar-14 23:33N 40°42' W 074°01'0 0.1
2017-Mar-14 22:34N 40°42' W 074°01'0 0.2
2017-Mar-14 21:33N 40°42' W 074°01'0 0.1
2017-Mar-14 20:33N 40°42' W 074°01'0 0.0
2017-Mar-14 19:33N 40°42' W 074°01'0 0.0
2017-Mar-14 18:33N 40°42' W 074°01'0 0.0
2017-Mar-14 17:34N 40°42' W 074°01'0 0.1
2017-Mar-14 16:33N 40°42' W 074°01'0 0.1
2017-Mar-14 15:34N 40°42' W 074°01'0 0.1
2017-Mar-14 14:34N 40°42' W 074°01'0 0.1
2017-Mar-14 13:33N 40°42' W 074°01'0 0.1
2017-Mar-14 12:34N 40°42' W 074°01'0 0.2
2017-Mar-14 11:34N 40°42' W 074°01'0 0.0
2017-Mar-14 10:33N 40°42' W 074°01'0 0.0
2017-Mar-14 09:33N 40°42' W 074°01'0 0.0
2017-Mar-14 08:33N 40°42' W 074°01'4 4.3
2017-Mar-14 07:33N 40°39' W 074°04'4 4.2
2017-Mar-14 06:33N 40°42' W 074°01'0 0.0
2017-Mar-14 05:33N 40°42' W 074°01'0 0.0
2017-Mar-14 04:33N 40°42' W 074°01'4 4.3
2017-Mar-14 03:34N 40°39' W 074°04'0 0.0
2017-Mar-14 02:34N 40°39' W 074°04'0 0.0
2017-Mar-14 01:33N 40°39' W 074°04'4 4.2
2017-Mar-14 00:34N 40°42' W 074°01'4 4.2
2017-Mar-13 23:33N 40°39' W 074°04'0 0.0
2017-Mar-13 22:33N 40°39' W 074°04'0 0.2
2017-Mar-13 21:33N 40°39' W 074°04'4 4.1
2017-Mar-13 20:34N 40°42' W 074°01'0 0.0
2017-Mar-13 19:34N 40°42' W 074°01'4 1.4
2017-Mar-13 16:34N 40°39' W 074°04'0 0.0
2017-Mar-13 15:34N 40°39' W 074°04'0 0.0
2017-Mar-13 14:34N 40°39' W 074°04'0 0.1
2017-Mar-13 13:33N 40°39' W 074°04'3 3.4
2017-Mar-13 12:33N 40°41' W 074°02'  

Dump ship's entire track history